Time;durP1;ratioP1;P1;durP2;ratioP2;P2;SDS_P1;SDS_P2;PMS_P1;PMS_P2;Temp;Humidity;BMP_temperature;BMP_pressure;BME280_temperature;BME280_humidity;BME280_pressure;Samples;Min_cycle;Max_cycle;Signal;HPM_P1;HPM_P2
2023/03/11 00:01:21;;;;;;;1.00;0.70;;;;;;;3.64;54.59;99685.03;4150081;28;20041;-60
2023/03/11 00:03:26;;;;;;;2.85;1.00;;;;;;;3.66;53.23;99704.81;4154203;28;20120;-60
2023/03/11 00:05:31;;;;;;;1.70;0.80;;;;;;;3.67;52.82;99693.69;4151348;28;20141;-61
2023/03/11 00:07:34;;;;;;;;;;;;;;;3.55;53.64;99710.41;4154028;28;20447;-60
2023/03/11 00:09:37;;;;;;;3.17;0.90;;;;;;;3.57;53.08;99704.50;4147172;28;20363;-60
2023/03/11 00:11:40;;;;;;;2.67;1.08;;;;;;;3.56;53.16;99707.03;4149826;28;20131;-61
2023/03/11 00:13:42;;;;;;;4.47;1.08;;;;;;;3.56;53.55;99686.47;4141747;28;20038;-60
2023/03/11 00:15:47;;;;;;;2.53;0.90;;;;;;;3.55;52.83;99695.00;4156376;28;20069;-60
2023/03/11 00:17:51;;;;;;;;;;;;;;;3.43;53.69;99686.13;4155572;28;20037;-60
2023/03/11 00:19:54;;;;;;;2.65;0.98;;;;;;;3.38;53.14;99687.66;4156187;28;20422;-60
2023/03/11 00:21:57;;;;;;;3.50;0.80;;;;;;;3.40;53.87;99686.03;4164883;28;20041;-60
2023/03/11 00:24:02;;;;;;;2.28;0.90;;;;;;;3.41;53.50;99684.31;4121961;28;20583;-60
2023/03/11 00:26:05;;;;;;;2.63;1.20;;;;;;;3.41;53.62;99702.31;4143978;28;20413;-60
2023/03/11 00:28:09;;;;;;;1.80;0.80;;;;;;;3.43;53.54;99692.94;4157818;28;21880;-61
2023/03/11 00:30:14;;;;;;;2.90;0.93;;;;;;;3.37;53.34;99685.06;4150329;28;20061;-60
2023/03/11 00:32:17;;;;;;;3.20;1.27;;;;;;;3.42;53.65;99697.22;4133600;28;20050;-60
2023/03/11 00:34:21;;;;;;;2.60;0.93;;;;;;;3.38;53.11;99708.22;4154491;28;20046;-61
2023/03/11 00:36:30;;;;;;;5.28;1.13;;;;;;;3.33;53.19;99722.63;4147376;28;20053;-60
2023/03/11 00:38:33;;;;;;;1.15;0.63;;;;;;;3.38;53.15;99722.78;4146203;28;20038;-60
2023/03/11 00:40:41;;;;;;;3.63;1.05;;;;;;;3.32;53.05;99729.44;4160355;28;20045;-60
2023/03/11 00:42:44;;;;;;;3.40;1.08;;;;;;;3.30;53.13;99723.41;4161659;28;20030;-60
2023/03/11 00:44:47;;;;;;;3.53;1.17;;;;;;;3.26;52.87;99718.13;4161575;28;20120;-60
2023/03/11 00:46:51;;;;;;;6.43;1.45;;;;;;;3.27;53.33;99720.75;4155308;28;20120;-60
2023/03/11 00:48:54;;;;;;;2.65;1.08;;;;;;;3.30;52.93;99733.69;4147792;28;20045;-60
2023/03/11 00:50:58;;;;;;;4.57;1.05;;;;;;;3.33;52.70;99712.34;4148548;28;20055;-60
2023/03/11 00:53:02;;;;;;;2.08;0.95;;;;;;;3.28;52.76;99742.16;4157612;28;20792;-61
2023/03/11 00:55:06;;;;;;;3.22;0.90;;;;;;;3.24;52.62;99727.47;4151633;28;20093;-60
2023/03/11 00:57:10;;;;;;;2.22;0.82;;;;;;;3.23;52.80;99731.72;4144026;28;20446;-60
2023/03/11 00:59:13;;;;;;;1.65;1.02;;;;;;;3.27;52.10;99719.84;4149722;28;20048;-60
2023/03/11 01:01:17;;;;;;;2.70;1.00;;;;;;;3.29;52.50;99747.34;4160785;28;20096;-60
2023/03/11 01:03:21;;;;;;;4.68;1.00;;;;;;;3.28;52.98;99735.31;4153415;28;20045;-60
2023/03/11 01:05:27;;;;;;;2.45;0.90;;;;;;;3.29;52.61;99754.19;4144951;28;20050;-60
2023/03/11 01:07:32;;;;;;;4.57;1.08;;;;;;;3.31;52.82;99753.41;4152892;28;20038;-60
2023/03/11 01:09:35;;;;;;;;;;;;;;;3.25;52.86;99734.34;4152484;28;20120;-60
2023/03/11 01:11:38;;;;;;;3.67;1.17;;;;;;;3.23;52.96;99762.56;4162147;28;19922;-61
2023/03/11 01:13:43;;;;;;;;;;;;;;;3.18;53.07;99729.84;4167412;28;20443;-60
2023/03/11 01:15:45;;;;;;;5.18;0.90;;;;;;;3.18;52.48;99748.69;4151320;28;19930;-60
2023/03/11 01:17:49;;;;;;;4.22;0.85;;;;;;;3.19;53.88;99727.31;4131061;28;20509;-60
2023/03/11 01:19:52;;;;;;;5.13;1.02;;;;;;;3.24;53.65;99732.59;4138180;28;20387;-60
2023/03/11 01:21:56;;;;;;;5.72;1.00;;;;;;;3.19;53.63;99736.72;4158163;28;20041;-61
2023/03/11 01:24:01;;;;;;;3.42;1.20;;;;;;;3.17;53.46;99739.25;4154549;28;20411;-61
2023/03/11 01:26:04;;;;;;;2.90;1.00;;;;;;;3.16;53.81;99726.38;4165143;28;20065;-60
2023/03/11 01:28:08;;;;;;;1.40;0.82;;;;;;;3.13;53.14;99725.41;4153331;28;20065;-60
2023/03/11 01:30:15;;;;;;;2.40;0.90;;;;;;;3.13;52.86;99728.00;4149353;28;20034;-60
2023/03/11 01:32:17;;;;;;;2.05;1.02;;;;;;;3.04;53.61;99727.69;4149132;28;20128;-60
2023/03/11 01:34:20;;;;;;;1.80;0.63;;;;;;;3.07;53.67;99727.81;4152200;28;20034;-59
2023/03/11 01:36:23;;;;;;;4.03;1.05;;;;;;;3.16;53.78;99721.22;4144133;28;20049;-60
2023/03/11 01:38:26;;;;;;;2.72;1.02;;;;;;;3.17;53.71;99733.22;4144959;28;20121;-59
2023/03/11 01:40:34;;;;;;;5.22;1.27;;;;;;;3.18;53.17;99729.84;4150155;28;20536;-60
2023/03/11 01:42:43;;;;;;;6.40;1.10;;;;;;;3.21;54.04;99740.22;4153037;28;20034;-60
2023/03/11 01:44:46;;;;;;;5.72;1.33;;;;;;;3.16;53.84;99739.22;4138762;28;20038;-60
2023/03/11 01:47:27;;;;;;;4.20;1.17;;;;;;;3.25;53.34;99735.22;4166051;28;20499;-59
2023/03/11 01:49:29;;;;;;;4.93;1.17;;;;;;;3.07;53.14;99758.63;4163242;28;20041;-60
2023/03/11 01:51:37;;;;;;;4.65;1.25;;;;;;;3.03;53.46;99761.91;4151213;28;20117;-60
2023/03/11 01:53:41;;;;;;;3.70;1.05;;;;;;;3.00;53.05;99761.81;4150654;28;20030;-59
2023/03/11 01:55:46;;;;;;;4.50;1.73;;;;;;;3.01;53.55;99770.38;4138979;28;20540;-59
2023/03/11 01:57:51;;;;;;;6.63;1.05;;;;;;;3.00;53.05;99772.06;4137109;28;20577;-59
2023/03/11 01:59:58;;;;;;;8.10;1.40;;;;;;;3.04;53.33;99775.59;4151737;28;20090;-60
2023/03/11 02:02:06;;;;;;;6.43;1.35;;;;;;;2.95;52.97;99789.91;4154864;28;20088;-59
2023/03/11 02:04:09;;;;;;;4.00;1.30;;;;;;;2.94;53.75;99800.09;4160362;28;20033;-60
2023/03/11 02:06:16;;;;;;;5.03;1.23;;;;;;;2.96;53.63;99801.03;4132238;28;20502;-60
2023/03/11 02:08:19;;;;;;;5.20;1.40;;;;;;;2.95;53.63;99794.16;4149628;28;20095;-61
2023/03/11 02:10:22;;;;;;;5.78;1.38;;;;;;;2.99;53.36;99801.13;4147233;28;20317;-60
2023/03/11 02:12:31;;;;;;;3.35;1.13;;;;;;;3.00;53.34;99787.47;4170342;28;20037;-60
2023/03/11 02:14:35;;;;;;;5.90;0.98;;;;;;;3.07;52.99;99794.56;4140382;28;20053;-61
2023/03/11 02:16:38;;;;;;;6.63;1.25;;;;;;;3.05;53.14;99785.06;4154208;28;20378;-60
2023/03/11 02:18:42;;;;;;;6.05;1.40;;;;;;;3.06;52.86;99776.53;4149891;28;20041;-60
2023/03/11 02:20:52;;;;;;;4.55;1.05;;;;;;;3.03;52.63;99772.16;4133033;28;20252;-60
2023/03/11 02:22:56;;;;;;;4.60;1.15;;;;;;;3.05;52.42;99767.97;4144074;28;20077;-60
2023/03/11 02:25:05;;;;;;;3.55;1.00;;;;;;;2.99;52.96;99756.63;4142519;28;20041;-60
2023/03/11 02:27:12;;;;;;;6.72;1.40;;;;;;;2.97;53.02;99759.13;4148413;28;20034;-60
2023/03/11 02:29:16;;;;;;;3.72;1.00;;;;;;;2.96;52.69;99758.28;4155495;28;20500;-60
2023/03/11 02:31:19;;;;;;;3.17;1.00;;;;;;;3.02;53.02;99749.88;4147803;28;20034;-60
2023/03/11 02:33:27;;;;;;;5.53;1.13;;;;;;;3.10;52.79;99757.84;4148085;28;20185;-60
2023/03/11 02:35:31;;;;;;;6.70;1.30;;;;;;;3.08;53.47;99755.22;4144820;28;20579;-60
2023/03/11 02:37:35;;;;;;;4.68;1.35;;;;;;;3.09;52.86;99758.66;4167661;28;20033;-60
2023/03/11 02:39:43;;;;;;;4.40;1.13;;;;;;;2.95;52.45;99763.34;4154843;28;20045;-60
2023/03/11 02:41:48;;;;;;;5.35;1.30;;;;;;;2.84;53.19;99772.38;4153796;28;20428;-60
2023/03/11 02:43:53;;;;;;;2.90;1.52;;;;;;;2.78;53.25;99770.47;4140283;28;20113;-61
2023/03/11 02:45:59;;;;;;;4.05;1.15;;;;;;;2.67;52.97;99772.66;4147031;28;20087;-60
2023/03/11 02:48:02;;;;;;;3.28;1.20;;;;;;;2.59;53.35;99784.34;4146115;28;20046;-60
2023/03/11 02:50:11;;;;;;;5.25;1.95;;;;;;;2.59;53.68;99781.78;4173043;28;20069;-61
2023/03/11 02:52:13;;;;;;;5.03;1.48;;;;;;;2.59;53.72;99781.78;4164675;28;20128;-60
2023/03/11 02:54:16;;;;;;;3.45;1.73;;;;;;;2.55;53.36;99779.94;4146081;28;20121;-60
2023/03/11 02:56:20;;;;;;;6.68;1.67;;;;;;;2.56;53.62;99779.13;4149575;28;20140;-61
2023/03/11 02:58:23;;;;;;;4.88;1.30;;;;;;;2.62;53.32;99775.06;4142945;28;20046;-61
2023/03/11 03:00:27;;;;;;;5.93;1.40;;;;;;;2.69;53.08;99781.28;4121228;28;20051;-60
2023/03/11 03:02:36;;;;;;;4.55;1.20;;;;;;;2.70;53.64;99787.28;4151148;28;20100;-61
2023/03/11 03:04:40;;;;;;;4.15;1.20;;;;;;;2.67;53.27;99793.19;4163967;28;20048;-61
2023/03/11 03:06:43;;;;;;;4.00;1.80;;;;;;;2.67;53.56;99784.63;4145792;28;20042;-60
2023/03/11 03:08:46;;;;;;;4.47;1.00;;;;;;;2.63;53.66;99781.09;4149419;28;20041;-60
2023/03/11 03:10:49;;;;;;;7.80;1.40;;;;;;;2.55;53.40;99785.06;4143124;28;20034;-60
2023/03/11 03:12:52;;;;;;;6.85;1.20;;;;;;;2.57;54.12;99788.53;4154053;28;20041;-61
2023/03/11 03:14:56;;;;;;;7.38;1.50;;;;;;;2.55;54.38;99782.50;4154423;28;20041;-61
2023/03/11 03:17:01;;;;;;;6.20;1.45;;;;;;;2.51;53.85;99791.78;4150125;28;20037;-60
2023/03/11 03:19:04;;;;;;;2.83;1.23;;;;;;;2.55;53.59;99797.91;4144651;28;20117;-60
2023/03/11 03:21:07;;;;;;;4.90;1.48;;;;;;;2.53;54.08;99800.41;4148443;28;20403;-60
2023/03/11 03:23:10;;;;;;;3.83;1.33;;;;;;;2.55;54.03;99800.47;4153614;28;20034;-60
2023/03/11 03:25:13;;;;;;;4.18;1.35;;;;;;;2.61;54.14;99805.81;4154556;28;20040;-60
2023/03/11 03:27:15;;;;;;;6.32;1.15;;;;;;;2.57;54.24;99809.06;4149959;28;20588;-60
2023/03/11 03:29:18;;;;;;;3.92;1.13;;;;;;;2.50;54.57;99809.66;4157390;28;20046;-60
2023/03/11 03:31:23;;;;;;;3.70;1.17;;;;;;;2.42;54.46;99820.56;4152657;28;20045;-60
2023/03/11 03:33:28;;;;;;;4.78;1.25;;;;;;;2.39;54.47;99814.41;4159866;28;20409;-60
2023/03/11 03:35:31;;;;;;;6.10;1.73;;;;;;;2.46;54.88;99820.66;4152975;28;20033;-60
2023/03/11 03:37:39;;;;;;;4.22;1.15;;;;;;;2.39;54.90;99822.13;4151597;28;20431;-60
2023/03/11 03:39:42;;;;;;;5.55;1.65;;;;;;;2.35;54.88;99831.41;4152396;28;20084;-60
2023/03/11 03:41:46;;;;;;;5.65;1.83;;;;;;;2.36;55.20;99838.25;4124124;28;20043;-61
2023/03/11 03:43:50;;;;;;;6.68;1.98;;;;;;;2.30;55.42;99835.47;4148281;28;20037;-60
2023/03/11 03:45:58;;;;;;;8.82;1.38;;;;;;;2.29;55.37;99827.72;4147490;28;20057;-60
2023/03/11 03:48:04;;;;;;;5.78;1.65;;;;;;;2.24;55.26;99832.69;4148290;28;20034;-60
2023/03/11 03:50:13;;;;;;;7.03;1.80;;;;;;;2.21;55.76;99825.75;4153915;28;20042;-60
2023/03/11 03:52:19;;;;;;;3.72;1.15;;;;;;;2.20;55.53;99816.28;4148435;28;20064;-60
2023/03/11 03:54:22;;;;;;;5.93;1.17;;;;;;;2.17;55.95;99820.44;4152706;28;20068;-60
2023/03/11 03:56:25;;;;;;;6.10;2.03;;;;;;;2.21;56.06;99819.75;4143758;28;20505;-61
2023/03/11 03:58:28;;;;;;;1.65;0.93;;;;;;;2.21;56.18;99824.88;4157224;28;20115;-60
2023/03/11 04:00:31;;;;;;;4.82;1.58;;;;;;;2.17;55.78;99826.44;4157695;28;20046;-60
2023/03/11 04:02:37;;;;;;;7.43;1.50;;;;;;;2.15;55.85;99828.09;4155626;28;20256;-61
2023/03/11 04:04:40;;;;;;;7.43;1.58;;;;;;;2.09;56.42;99827.88;4146123;28;20080;-60
2023/03/11 04:06:45;;;;;;;1.85;1.30;;;;;;;2.12;55.49;99837.34;4142641;28;20041;-60
2023/03/11 04:08:50;;;;;;;5.30;1.67;;;;;;;2.14;56.11;99833.16;4171674;28;20037;-60
2023/03/11 04:10:57;;;;;;;5.07;1.45;;;;;;;2.17;56.21;99836.69;4152805;28;20440;-60
2023/03/11 04:13:02;;;;;;;5.35;1.70;;;;;;;2.17;56.13;99838.41;4167388;28;20068;-61
2023/03/11 04:15:06;;;;;;;6.97;1.58;;;;;;;2.19;56.00;99835.09;4147382;28;20414;-60
2023/03/11 04:17:10;;;;;;;4.43;1.35;;;;;;;2.25;56.23;99839.56;4150422;28;20172;-60
2023/03/11 04:19:13;;;;;;;3.25;1.10;;;;;;;2.17;55.88;99846.97;4157213;28;20088;-60
2023/03/11 04:21:16;;;;;;;4.68;1.10;;;;;;;2.18;55.54;99846.16;4154826;28;20096;-60
2023/03/11 04:23:21;;;;;;;7.18;1.70;;;;;;;2.07;55.95;99849.97;4137322;28;20504;-60
2023/03/11 04:25:24;;;;;;;7.70;2.05;;;;;;;2.04;56.28;99853.31;4152204;28;20048;-60
2023/03/11 04:27:27;;;;;;;2.83;1.17;;;;;;;2.05;56.67;99844.81;4149316;28;20671;-60
2023/03/11 04:29:30;;;;;;;3.95;1.38;;;;;;;2.07;56.69;99842.28;4155683;28;20492;-60
2023/03/11 04:31:33;;;;;;;4.30;1.67;;;;;;;2.12;56.32;99845.03;4158581;28;20042;-60
2023/03/11 04:33:41;;;;;;;4.10;1.35;;;;;;;2.08;56.05;99857.72;4154404;28;20558;-61
2023/03/11 04:35:45;;;;;;;3.05;1.33;;;;;;;2.11;56.36;99851.00;4143795;28;20042;-60
2023/03/11 04:37:49;;;;;;;7.63;1.63;;;;;;;2.18;56.67;99858.09;4148170;28;20038;-60
2023/03/11 04:39:53;;;;;;;6.15;1.42;;;;;;;2.25;56.57;99855.81;4154683;28;20096;-60
2023/03/11 04:41:56;;;;;;;3.53;1.27;;;;;;;2.36;56.59;99856.22;4159730;28;20049;-60
2023/03/11 04:44:01;;;;;;;7.10;1.67;;;;;;;2.42;56.98;99851.34;4149663;28;20030;-61
2023/03/11 04:46:04;;;;;;;6.75;2.40;;;;;;;2.48;56.41;99857.50;4147300;28;20070;-60
2023/03/11 04:48:08;;;;;;;11.77;1.50;;;;;;;2.52;56.33;99864.50;4140171;28;20038;-60
2023/03/11 04:50:12;;;;;;;8.63;2.33;;;;;;;2.44;56.05;99857.38;4153424;28;20292;-60
2023/03/11 04:52:16;;;;;;;4.90;1.40;;;;;;;2.37;56.65;99860.53;4145564;28;20162;-60
2023/03/11 04:54:19;;;;;;;3.45;1.20;;;;;;;2.25;56.34;99866.09;4148690;28;20049;-60
2023/03/11 04:56:27;;;;;;;6.03;1.73;;;;;;;2.24;56.37;99858.34;4151746;28;20515;-62
2023/03/11 04:58:30;;;;;;;7.60;1.60;;;;;;;2.19;56.89;99867.53;4127156;28;20042;-78
2023/03/11 05:00:33;;;;;;;7.10;1.40;;;;;;;2.09;56.65;99869.75;4130815;28;20073;-79
2023/03/11 05:02:40;;;;;;;3.83;1.50;;;;;;;2.09;57.25;99869.75;4106507;28;20098;-79
2023/03/11 05:04:44;;;;;;;9.55;1.50;;;;;;;2.17;56.99;99871.72;4115530;28;20065;-79
2023/03/11 05:06:50;;;;;;;4.57;1.40;;;;;;;2.23;57.07;99872.84;4121815;28;20117;-79
2023/03/11 05:08:54;;;;;;;6.80;1.48;;;;;;;2.27;56.26;99872.13;4108986;28;20062;-78
2023/03/11 05:10:57;;;;;;;6.90;1.80;;;;;;;2.29;56.80;99874.75;4098404;28;20089;-77
2023/03/11 05:13:01;;;;;;;6.43;1.17;;;;;;;2.33;56.41;99884.31;4113899;28;20437;-77
2023/03/11 05:15:09;;;;;;;8.85;1.67;;;;;;;2.41;56.28;99882.94;4117313;28;20035;-78
2023/03/11 05:17:13;;;;;;;7.97;1.60;;;;;;;2.46;56.85;99884.78;4096861;28;20067;-78
2023/03/11 05:19:33;;;;;;;7.85;1.60;;;;;;;2.43;56.95;99877.84;4095400;28;20150;-78
2023/03/11 05:21:43;;;;;;;4.97;1.25;;;;;;;2.37;57.20;99875.94;4090420;28;20043;-78
2023/03/11 05:23:46;;;;;;;4.75;1.63;;;;;;;2.35;57.13;99877.56;4104096;28;20420;-78
2023/03/11 05:25:49;;;;;;;4.78;1.17;;;;;;;2.36;56.96;99878.44;4097438;28;20514;-78
2023/03/11 05:27:53;;;;;;;7.25;1.30;;;;;;;2.34;56.63;99880.94;4111979;28;20119;-78
2023/03/11 05:29:57;;;;;;;6.40;1.30;;;;;;;2.43;57.12;99886.41;4109279;28;20138;-79
2023/03/11 05:32:02;;;;;;;5.95;1.77;;;;;;;2.48;56.72;99889.16;4096320;29;20062;-78
2023/03/11 05:34:05;;;;;;;5.50;1.35;;;;;;;2.45;56.56;99883.91;4110655;28;20143;-80
2023/03/11 05:36:09;;;;;;;2.90;1.40;;;;;;;2.38;56.83;99885.38;4101660;28;20038;-79
2023/03/11 05:38:19;;;;;;;5.05;1.25;;;;;;;2.32;56.69;99887.69;4104189;28;20046;-78
2023/03/11 05:40:22;;;;;;;5.20;1.40;;;;;;;2.36;56.51;99888.69;4108493;28;20094;-78
2023/03/11 05:42:25;;;;;;;3.42;1.17;;;;;;;2.34;56.03;99895.47;4084395;29;20336;-77
2023/03/11 05:44:30;;;;;;;3.08;1.50;;;;;;;2.35;56.79;99898.09;4102675;28;20048;-77
2023/03/11 05:46:34;;;;;;;3.33;1.55;;;;;;;2.32;57.08;99903.09;4095935;28;20049;-77
2023/03/11 05:48:40;;;;;;;6.57;1.67;;;;;;;2.29;56.72;99895.28;4104890;28;20047;-77
2023/03/11 05:50:42;;;;;;;9.32;1.70;;;;;;;2.22;56.70;99895.84;4107333;28;20043;-78
2023/03/11 05:52:46;;;;;;;6.63;1.50;;;;;;;2.17;57.14;99897.38;4123483;28;20130;-77
2023/03/11 05:54:50;;;;;;;9.60;1.60;;;;;;;2.20;57.56;99889.81;4108415;28;20716;-77
2023/03/11 05:56:57;;;;;;;5.45;1.65;;;;;;;2.25;56.93;99893.44;4110893;28;20624;-77
2023/03/11 05:59:00;;;;;;;5.35;1.48;;;;;;;2.28;56.90;99896.09;4124499;28;20039;-77
2023/03/11 06:01:09;;;;;;;5.40;1.55;;;;;;;2.31;57.02;99903.91;4124585;28;20072;-78
2023/03/11 06:03:13;;;;;;;4.88;1.40;;;;;;;2.34;57.50;99904.03;4128122;28;20065;-77
2023/03/11 06:05:17;;;;;;;4.00;1.10;;;;;;;2.39;57.23;99910.19;4127019;28;20031;-77
2023/03/11 06:07:22;;;;;;;10.65;1.58;;;;;;;2.47;56.89;99913.06;4138384;28;20038;-77
2023/03/11 06:09:25;;;;;;;4.47;1.73;;;;;;;2.49;57.01;99915.69;4131089;28;20659;-77
2023/03/11 06:11:28;;;;;;;3.63;1.48;;;;;;;2.54;57.17;99909.94;4137998;28;20121;-77
2023/03/11 06:13:32;;;;;;;7.35;1.70;;;;;;;2.46;57.42;99913.03;4134064;28;20046;-77
2023/03/11 06:15:35;;;;;;;4.60;1.48;;;;;;;2.41;56.60;99910.25;4132238;28;20042;-76
2023/03/11 06:17:39;;;;;;;3.28;1.42;;;;;;;2.27;56.87;99909.75;4137274;28;20042;-77
2023/03/11 06:19:44;;;;;;;6.25;1.42;;;;;;;2.23;57.04;99910.44;4139766;28;20038;-77
2023/03/11 06:21:47;;;;;;;12.85;3.65;;;;;;;2.19;57.56;99916.25;4141057;28;20046;-77
2023/03/11 06:23:52;;;;;;;8.25;1.70;;;;;;;2.19;57.40;99923.94;4127627;28;20066;-77
2023/03/11 06:25:56;;;;;;;9.48;2.60;;;;;;;2.24;57.05;99925.00;4114563;28;20042;-77
2023/03/11 06:27:59;;;;;;;3.75;1.02;;;;;;;2.18;57.27;99938.47;4130328;28;20034;-77
2023/03/11 06:30:03;;;;;;;6.95;1.63;;;;;;;2.24;58.02;99930.13;4126258;28;20108;-77
2023/03/11 06:32:11;;;;;;;5.60;1.85;;;;;;;2.30;58.07;99940.63;4133250;28;20038;-78
2023/03/11 06:34:14;;;;;;;5.90;1.95;;;;;;;2.30;57.93;99942.34;4130408;28;20097;-77
2023/03/11 06:36:20;;;;;;;7.43;1.85;;;;;;;2.34;57.52;99946.78;4133987;28;20093;-78
2023/03/11 06:38:24;;;;;;;5.25;1.75;;;;;;;2.34;57.21;99945.06;4125712;28;20043;-78
2023/03/11 06:40:27;;;;;;;7.03;2.00;;;;;;;2.30;56.99;99945.75;4131009;28;20038;-77
2023/03/11 06:42:30;;;;;;;5.82;1.73;;;;;;;2.30;57.49;99950.03;4136102;28;20508;-78
2023/03/11 06:44:33;;;;;;;7.30;1.60;;;;;;;2.28;56.79;99955.09;4131314;28;20042;-78
2023/03/11 06:46:36;;;;;;;6.80;1.83;;;;;;;2.22;57.34;99962.53;4133848;28;20090;-78
2023/03/11 06:48:39;;;;;;;7.03;2.10;;;;;;;2.23;56.97;99970.31;4135996;28;20034;-78
2023/03/11 06:50:43;;;;;;;8.43;2.13;;;;;;;2.30;57.57;99980.81;4134402;28;20121;-78
2023/03/11 06:52:49;;;;;;;5.57;1.67;;;;;;;2.27;57.01;99971.28;4132866;28;20574;-77
2023/03/11 06:54:52;;;;;;;5.28;1.67;;;;;;;2.27;56.73;99971.28;4118162;28;20050;-77
2023/03/11 06:56:55;;;;;;;7.43;1.95;;;;;;;2.28;57.00;99975.63;4131108;28;20045;-78
2023/03/11 06:58:58;;;;;;;8.82;1.42;;;;;;;2.27;57.61;99973.84;4141943;28;20092;-77
2023/03/11 07:01:08;;;;;;;6.63;1.83;;;;;;;2.22;57.24;99973.69;4111987;28;20043;-77
2023/03/11 07:03:13;;;;;;;8.82;1.85;;;;;;;2.27;57.16;99976.41;4139693;28;20077;-78
2023/03/11 07:05:16;;;;;;;6.80;1.60;;;;;;;2.35;56.94;99984.41;4133139;28;20378;-79
2023/03/11 07:07:20;;;;;;;4.82;1.50;;;;;;;2.36;57.47;99986.16;4130243;28;20078;-78
2023/03/11 07:09:24;;;;;;;9.10;1.58;;;;;;;2.35;57.56;99997.25;4147069;28;20034;-77
2023/03/11 07:11:28;;;;;;;6.97;1.90;;;;;;;2.44;57.38;100001.06;4147085;28;20209;-77
2023/03/11 07:13:39;;;;;;;6.43;1.38;;;;;;;2.54;56.94;100006.53;4134297;28;20046;-77
2023/03/11 07:15:42;;;;;;;6.45;2.05;;;;;;;2.58;56.44;100009.28;4137357;28;20034;-77
2023/03/11 07:17:44;;;;;;;5.80;1.70;;;;;;;2.46;56.75;100007.94;4130780;28;20041;-78
2023/03/11 07:19:47;;;;;;;5.72;1.92;;;;;;;2.48;56.98;100007.16;4128139;28;20046;-78
2023/03/11 07:21:50;;;;;;;5.75;1.10;;;;;;;2.47;56.61;100004.53;4125851;28;20043;-77
2023/03/11 07:23:54;;;;;;;7.55;1.70;;;;;;;2.47;56.47;100001.97;4139126;28;20441;-77
2023/03/11 07:25:59;;;;;;;5.45;1.92;;;;;;;2.54;56.30;100003.97;4136832;28;20509;-76
2023/03/11 07:28:02;;;;;;;5.80;1.70;;;;;;;2.52;56.35;100003.91;4127246;28;20052;-78
2023/03/11 07:30:05;;;;;;;8.40;1.88;;;;;;;2.65;56.92;100010.41;4137461;28;20043;-79
2023/03/11 07:32:08;;;;;;;7.40;2.45;;;;;;;2.65;56.72;100017.22;4135279;28;20052;-78
2023/03/11 07:34:12;;;;;;;5.43;1.77;;;;;;;2.62;56.58;100025.69;4144833;28;20061;-78
2023/03/11 07:36:17;;;;;;;8.48;2.03;;;;;;;2.77;56.20;100035.66;4141489;28;20125;-78
2023/03/11 07:38:20;;;;;;;5.20;1.58;;;;;;;2.95;56.13;100035.50;4138167;28;20038;-78
2023/03/11 07:40:23;;;;;;;5.63;2.33;;;;;;;2.98;56.21;100038.19;4124700;28;20046;-77
2023/03/11 07:42:27;;;;;;;7.32;3.13;;;;;;;2.95;55.67;100030.38;4141128;28;20038;-78
2023/03/11 07:44:30;;;;;;;11.40;2.42;;;;;;;3.00;55.80;100045.94;4139279;28;20037;-77
2023/03/11 07:46:33;;;;;;;9.27;2.35;;;;;;;3.06;55.72;100043.59;4138504;28;20129;-77
2023/03/11 07:48:37;;;;;;;4.97;1.70;;;;;;;3.06;55.57;100038.47;4141367;28;20117;-77
2023/03/11 07:50:40;;;;;;;4.90;1.83;;;;;;;3.05;55.29;100047.88;4135427;28;20080;-79
2023/03/11 07:52:43;;;;;;;10.20;2.20;;;;;;;3.06;55.45;100051.31;4146283;28;20305;-80
2023/03/11 07:54:46;;;;;;;8.48;2.22;;;;;;;3.22;54.93;100056.19;4146366;28;20046;-75
2023/03/11 07:56:49;;;;;;;8.88;2.10;;;;;;;3.14;54.85;100073.91;4123472;28;20078;-75
2023/03/11 07:58:53;;;;;;;8.38;1.83;;;;;;;3.12;55.49;100069.50;4141596;28;20038;-76
2023/03/11 08:00:56;;;;;;;8.10;1.88;;;;;;;3.11;55.43;100063.50;4131825;28;20081;-74
2023/03/11 08:02:59;;;;;;;13.38;2.53;;;;;;;3.13;55.20;100067.00;4134637;28;20102;-73
2023/03/11 08:05:02;;;;;;;12.77;2.17;;;;;;;3.29;54.90;100067.59;4136681;28;20043;-73
2023/03/11 08:07:05;;;;;;;4.18;1.70;;;;;;;3.29;54.76;100068.44;4141477;28;20030;-73
2023/03/11 08:09:09;;;;;;;13.90;5.50;;;;;;;3.31;54.61;100076.22;4129118;28;20043;-72
2023/03/11 08:11:12;;;;;;;15.82;6.20;;;;;;;3.43;55.18;100081.81;4135956;28;20046;-72
2023/03/11 08:13:15;;;;;;;10.65;2.78;;;;;;;3.44;54.38;100082.69;4132458;28;20066;-72
2023/03/11 08:15:20;;;;;;;11.95;2.20;;;;;;;3.53;53.40;100088.16;4134094;28;20050;-72
2023/03/11 08:17:22;;;;;;;12.45;2.67;;;;;;;3.55;53.74;100088.22;4131524;28;20046;-72
2023/03/11 08:19:25;;;;;;;11.48;2.05;;;;;;;3.54;54.06;100096.75;4138893;28;20048;-72
2023/03/11 08:21:30;;;;;;;8.20;2.20;;;;;;;3.57;54.05;100092.59;4137981;28;20093;-72
2023/03/11 08:23:34;;;;;;;5.55;1.83;;;;;;;3.59;53.49;100097.78;4129352;28;20456;-71
2023/03/11 08:25:39;;;;;;;8.55;2.78;;;;;;;3.54;53.84;100095.06;4106841;28;20043;-72
2023/03/11 08:27:41;;;;;;;10.60;2.47;;;;;;;3.54;54.20;100104.47;4134394;28;20099;-72
2023/03/11 08:29:44;;;;;;;8.68;2.60;;;;;;;3.76;53.67;100094.13;4130067;28;20038;-74
2023/03/11 08:31:48;;;;;;;5.35;2.17;;;;;;;3.98;53.42;100103.47;4135531;28;20038;-74
2023/03/11 08:33:54;;;;;;;13.43;2.53;;;;;;;4.09;52.03;100091.00;4136482;28;20042;-66
2023/03/11 08:35:57;;;;;;;7.97;2.70;;;;;;;4.00;52.58;100104.41;4136935;28;20049;-73
2023/03/11 08:38:00;;;;;;;8.25;2.55;;;;;;;4.01;52.35;100095.00;4131823;28;20401;-73
2023/03/11 08:40:03;;;;;;;11.15;2.53;;;;;;;4.16;51.45;100092.97;4132906;28;20040;-74
2023/03/11 08:42:06;;;;;;;4.10;2.10;;;;;;;4.48;49.75;100076.84;4132553;28;20034;-67
2023/03/11 08:44:09;;;;;;;10.40;2.30;;;;;;;4.23;50.85;100093.16;4134249;28;20038;-66
2023/03/11 08:46:17;;;;;;;5.40;1.88;;;;;;;4.15;51.80;100091.22;4130693;28;20121;-65
2023/03/11 08:48:22;;;;;;;8.40;1.77;;;;;;;4.15;51.24;100096.34;4125947;28;20426;-65
2023/03/11 08:50:25;;;;;;;5.63;1.60;;;;;;;4.16;50.73;100092.97;4123470;28;20089;-63
2023/03/11 08:52:28;;;;;;;9.00;2.38;;;;;;;4.22;50.71;100100.03;4130670;28;20042;-68
2023/03/11 08:54:32;;;;;;;6.95;1.83;;;;;;;4.17;50.34;100098.97;4125251;28;20105;-77
2023/03/11 08:56:35;;;;;;;7.30;2.33;;;;;;;4.18;50.50;100096.44;4134157;28;20041;-72
2023/03/11 08:58:38;;;;;;;11.40;2.22;;;;;;;4.34;49.77;100094.41;4132064;28;20463;-73
2023/03/11 09:00:41;;;;;;;6.40;1.77;;;;;;;4.47;49.88;100112.00;4125322;28;20065;-72
2023/03/11 09:02:44;;;;;;;13.07;3.55;;;;;;;4.48;49.62;100100.91;4123849;28;20077;-72
2023/03/11 09:04:48;;;;;;;8.57;2.25;;;;;;;4.36;49.71;100098.75;4132915;28;20457;-71
2023/03/11 09:06:51;;;;;;;4.32;2.33;;;;;;;4.28;50.00;100099.31;4136792;28;20033;-71
2023/03/11 09:08:54;;;;;;;11.07;2.28;;;;;;;4.43;48.96;100106.72;4116600;28;20042;-74
2023/03/11 09:10:56;;;;;;;7.78;2.15;;;;;;;4.42;48.55;100115.25;4114426;28;20604;-75
2023/03/11 09:12:59;;;;;;;6.78;1.80;;;;;;;4.69;46.65;100111.00;4127177;28;20091;-72
2023/03/11 09:15:02;;;;;;;4.20;1.40;;;;;;;4.98;46.25;100113.63;4124289;28;20074;-72
2023/03/11 09:17:06;;;;;;;5.97;2.08;;;;;;;5.04;46.40;100102.66;4112396;28;20065;-70
2023/03/11 09:19:09;;;;;;;4.65;1.40;;;;;;;5.00;47.42;100103.38;4145776;28;20042;-78
2023/03/11 09:21:13;;;;;;;2.60;1.20;;;;;;;5.15;47.06;100108.13;4122432;28;20059;-79
2023/03/11 09:23:17;;;;;;;5.70;1.85;;;;;;;5.08;45.62;100101.88;4130393;28;20046;-77
2023/03/11 09:25:20;;;;;;;7.60;1.47;;;;;;;5.02;45.35;100104.28;4128619;28;20074;-81
2023/03/11 09:27:23;;;;;;;3.83;1.27;;;;;;;5.15;44.93;100097.81;4128200;28;20796;-79
2023/03/11 09:29:26;;;;;;;9.57;1.58;;;;;;;5.44;43.87;100098.66;4132634;28;20038;-70
2023/03/11 09:31:29;;;;;;;9.93;1.63;;;;;;;5.59;43.00;100093.97;4131472;28;20057;-69
2023/03/11 09:33:36;;;;;;;7.68;1.42;;;;;;;5.60;43.12;100098.28;4120272;28;20046;-69
2023/03/11 09:35:39;;;;;;;4.22;1.25;;;;;;;5.63;42.20;100100.06;4127628;28;20479;-69
2023/03/11 09:37:43;;;;;;;4.95;1.75;;;;;;;6.00;40.02;100102.81;4135667;28;20061;-69
2023/03/11 09:39:46;;;;;;;2.97;0.77;;;;;;;5.77;39.09;100095.31;4135430;28;20120;-69
2023/03/11 09:41:54;;;;;;;3.72;1.20;;;;;;;5.67;40.47;100093.31;4132338;28;20045;-71
2023/03/11 09:44:12;;;;;;;3.63;1.00;;;;;;;5.80;40.55;100092.81;4127690;28;20389;-71
2023/03/11 09:46:50;;;;;;;4.88;1.45;;;;;;;5.81;40.72;100104.00;4126722;28;20049;-76
2023/03/11 09:49:00;;;;;;;4.22;1.13;;;;;;;5.81;39.54;100099.72;4122671;28;20042;-73
2023/03/11 09:51:08;;;;;;;2.13;1.15;;;;;;;5.71;38.96;100098.59;4129065;28;20117;-68